KASN

Details ICAO KASN
Name Talladega Muni
Region United States
Timezone America/Chicago (UTC-5.0)
Plans Departing 4
Arriving 17
Stats Elevation 528 ft / 161 m (AMSL)
Location 33.569920° -86.050852°
Runways 1
Magnetic Variation 4.003° W
Sunrise 2018-05-27 10:38:19 UTC / 2018-05-27 05:38:19 Local
Sunset 2018-05-28 00:47:20 UTC / 2018-05-27 19:47:20 Local
Advertisement - Login to hide

Runways

ID Width Length Bearing (true) Bearing (mag) Surface Threshold Offset Overrun Length
03 98 ft / 30 m 6,009 ft / 1,831 m 35.26° 39.26° Asphalt 0 ft / 0 m 0 ft / 0 m
21 98 ft / 30 m 6,009 ft / 1,831 m 215.26° 219.26° Asphalt 0 ft / 0 m 174 ft / 53 m

Map

Weather


0- 5 10 15 20 25 30 35+ Temperature / ° C

Clouds and Precipitation
Forecast for 2018-05-27 18:00 UTC. Updated 5 hours ago

Ground ~20,000 ft ~40,000 ft Winds

METAR

KASN 272215Z AUTO 16005KT 10SM SCT041 SCT048 SCT075 29/21 A2985 RMK AO2 T02860214

TAF

KASN 271745Z 2718/2818 09007KT P6SM VCTS BKN050CB FM280100 07003KT P6SM VCSH BKN080 FM281000 06010KT 4SM -RA BR OVC010

Frequencies

Recorded 118.42 MHz AWOS 3
Approach 125.45 MHz BIRMINGHAM APP/DEP
Unicom 122.80 MHz CTAF/UNICOM
Warning: Do not use this data for real-world aviation or navigation. No guarantee of current accuracy is given.